Terminal Aerodrome Forecast
Issued by NWS

Home | Current Version | Previous Version | Text Only | Print | Product List | Glossary On
Versions: 1 2 3 4 5 6 7 8 9 10 11 12 13 14 15 16 17 18 19 20
000
FTUS42 KTBW 031300 AAA
TAFLAL
TAF AMD
KLAL 031323Z 0313/0412 08005KT 1/4SM FG VV002
     FM031400 09006KT 2SM BR SCT002 BKN005
      TEMPO 0314/0315 1/2SM FG BKN002
     FM031500 10008KT P6SM SCT008 SCT025
     FM031700 12008KT P6SM SCT040
     FM032300 11005KT P6SM FEW050
     FM040100 VRB03KT P6SM SCT250
     FM040600 VRB03KT 3SM BR SCT010 SCT250=

USA.gov is the U.S. government's official web portal to all federal, state and local government web resources and services.